createdAt,value
2019-05-30T00:00:06.884Z,12.53
2019-05-30T00:02:21.967Z,12.46
2019-05-30T00:04:49.282Z,12.48
2019-05-30T00:07:16.683Z,12.55
2019-05-30T00:09:44.440Z,12.53
2019-05-30T00:12:12.219Z,12.48
2019-05-30T00:14:39.585Z,12.55
2019-05-30T00:17:07.385Z,12.47
2019-05-30T00:19:34.384Z,12.29
2019-05-30T00:22:03.728Z,12.39
2019-05-30T00:24:31.056Z,12.34
2019-05-30T00:26:58.410Z,12.28
2019-05-30T00:29:25.692Z,12.36
2019-05-30T00:31:53.101Z,12.18
2019-05-30T00:34:20.508Z,12.13
2019-05-30T00:36:48.548Z,12.08
2019-05-30T00:39:15.844Z,12.18
2019-05-30T00:41:42.862Z,12.14
2019-05-30T00:44:09.848Z,11.99
2019-05-30T00:46:37.643Z,11.80
2019-05-30T00:49:06.599Z,12.04
2019-05-30T00:51:34.508Z,11.92
2019-05-30T00:54:02.918Z,11.89
2019-05-30T00:56:30.441Z,11.89
2019-05-30T00:58:58.701Z,11.82
2019-05-30T01:01:26.759Z,11.80
2019-05-30T01:03:54.116Z,11.73
2019-05-30T01:06:21.818Z,11.74
2019-05-30T01:08:50.126Z,11.74
2019-05-30T01:11:17.931Z,11.64
2019-05-30T01:13:44.925Z,11.73
2019-05-30T01:16:12.329Z,11.65
2019-05-30T01:18:39.699Z,11.77
2019-05-30T01:21:07.581Z,11.73
2019-05-30T01:23:38.038Z,11.55
2019-05-30T01:26:05.690Z,11.61
2019-05-30T01:28:33.029Z,11.63
2019-05-30T01:31:05.557Z,11.63
2019-05-30T01:33:29.761Z,11.59
2019-05-30T01:35:57.766Z,11.57
2019-05-30T01:38:25.338Z,11.64
2019-05-30T01:40:53.503Z,11.61
2019-05-30T01:43:21.510Z,11.42
2019-05-30T01:45:49.202Z,11.51
2019-05-30T01:48:16.568Z,11.53
2019-05-30T01:50:44.599Z,11.51
2019-05-30T01:53:11.710Z,11.49
2019-05-30T01:55:39.170Z,11.56
2019-05-30T01:58:07.239Z,11.58
2019-05-30T02:00:40.831Z,11.58
2019-05-30T02:03:09.506Z,11.59
2019-05-30T02:05:37.391Z,11.61
2019-05-30T02:08:05.426Z,11.59
2019-05-30T02:10:33.269Z,11.62
2019-05-30T02:13:01.199Z,11.71
2019-05-30T02:15:28.654Z,11.79
2019-05-30T02:17:55.743Z,11.66
2019-05-30T02:20:22.793Z,11.64
2019-05-30T02:22:50.187Z,11.67
2019-05-30T02:25:17.736Z,11.58
2019-05-30T02:27:45.489Z,11.71
2019-05-30T02:30:15.026Z,11.63
2019-05-30T02:32:43.313Z,11.67
2019-05-30T02:35:12.765Z,11.68
2019-05-30T02:37:39.922Z,11.70
2019-05-30T02:40:10.564Z,11.72
2019-05-30T02:42:37.618Z,11.80
2019-05-30T02:45:07.862Z,11.88
2019-05-30T02:47:36.359Z,11.92
2019-05-30T02:50:06.126Z,11.93
2019-05-30T02:52:35.182Z,11.95
2019-05-30T02:55:03.929Z,11.97
2019-05-30T02:57:32.311Z,11.86
2019-05-30T03:00:01.745Z,12.00
2019-05-30T03:02:28.924Z,12.01
2019-05-30T03:04:56.412Z,11.92
2019-05-30T03:07:24.103Z,11.95
2019-05-30T03:09:51.778Z,11.97
2019-05-30T03:12:19.360Z,12.12
2019-05-30T03:14:47.427Z,12.02
2019-05-30T03:17:15.211Z,12.01
2019-05-30T03:19:43.203Z,12.04
2019-05-30T03:22:12.209Z,12.18
2019-05-30T03:24:40.371Z,12.25
2019-05-30T03:27:09.915Z,12.25
2019-05-30T03:29:37.236Z,12.18
2019-05-30T03:32:39.088Z,12.21
2019-05-30T03:34:36.409Z,12.38
2019-05-30T03:37:09.366Z,12.54
2019-05-30T03:39:35.078Z,12.63
2019-05-30T03:42:04.496Z,12.67
2019-05-30T03:44:32.059Z,12.69
2019-05-30T03:47:03.919Z,12.73
2019-05-30T03:49:35.322Z,12.74
2019-05-30T03:52:08.092Z,12.88
2019-05-30T03:54:36.163Z,12.96
2019-05-30T03:57:13.983Z,12.95
2019-05-30T03:59:46.546Z,13.15
2019-05-30T04:02:22.691Z,13.23
2019-05-30T04:04:56.705Z,13.19
2019-05-30T04:07:26.552Z,13.09
2019-05-30T04:09:56.819Z,13.18
2019-05-30T04:12:52.131Z,13.23
2019-05-30T04:15:32.141Z,13.33
2019-05-30T04:18:00.186Z,13.35
2019-05-30T04:20:27.522Z,13.45
2019-05-30T04:22:54.646Z,13.51
2019-05-30T04:25:22.326Z,13.51
2019-05-30T04:27:49.648Z,13.67
2019-05-30T04:30:18.598Z,13.68
2019-05-30T04:32:46.600Z,13.63
2019-05-30T04:35:14.687Z,13.77
2019-05-30T04:37:42.850Z,13.79
2019-05-30T04:40:11.403Z,13.70
2019-05-30T04:42:39.187Z,13.78
2019-05-30T04:45:07.535Z,13.80
2019-05-30T04:47:35.632Z,14.03
2019-05-30T04:50:04.861Z,14.15
2019-05-30T04:52:32.585Z,14.17
2019-05-30T04:54:59.940Z,14.32
2019-05-30T04:57:27.340Z,14.29
2019-05-30T04:59:54.529Z,14.48
2019-05-30T05:02:23.304Z,14.55
2019-05-30T05:04:51.472Z,14.57
2019-05-30T05:07:19.873Z,14.57
2019-05-30T05:09:47.402Z,14.57
2019-05-30T05:12:16.117Z,14.66
2019-05-30T05:14:43.610Z,14.79
2019-05-30T05:17:12.734Z,14.80
2019-05-30T05:19:41.080Z,14.87
2019-05-30T05:22:09.135Z,14.85
2019-05-30T05:24:36.624Z,14.82
2019-05-30T05:27:04.238Z,14.67
2019-05-30T05:29:31.930Z,14.79
2019-05-30T05:31:59.261Z,14.66
2019-05-30T05:34:27.037Z,14.77
2019-05-30T05:36:54.483Z,14.79
2019-05-30T05:39:22.238Z,14.64
2019-05-30T05:41:50.443Z,14.81
2019-05-30T05:44:18.301Z,14.70
2019-05-30T05:46:46.496Z,14.73
2019-05-30T05:49:13.588Z,14.95
2019-05-30T05:51:40.598Z,14.77
2019-05-30T05:54:07.658Z,14.66
2019-05-30T05:56:35.039Z,14.79
2019-05-30T05:59:02.014Z,14.85
2019-05-30T06:01:30.142Z,14.79
2019-05-30T06:04:12.164Z,14.74
2019-05-30T06:06:27.425Z,14.85
2019-05-30T06:08:55.352Z,14.92
2019-05-30T06:11:22.748Z,15.09
2019-05-30T06:13:50.337Z,14.98
2019-05-30T06:16:17.813Z,15.05
2019-05-30T06:18:47.475Z,14.96
2019-05-30T06:21:14.883Z,14.91
2019-05-30T06:23:45.460Z,15.08
2019-05-30T06:26:11.943Z,15.21
2019-05-30T06:28:39.644Z,15.08
2019-05-30T06:31:07.003Z,15.13
2019-05-30T06:33:35.242Z,15.21
2019-05-30T06:36:03.933Z,15.41
2019-05-30T06:38:31.692Z,15.37
2019-05-30T06:40:59.547Z,15.34
2019-05-30T06:43:28.139Z,15.35
2019-05-30T06:45:55.742Z,15.30
2019-05-30T06:48:24.650Z,15.35
2019-05-30T06:50:52.903Z,15.48
2019-05-30T06:53:21.027Z,15.67
2019-05-30T06:55:48.093Z,15.76
2019-05-30T06:58:15.164Z,15.74
2019-05-30T07:00:42.301Z,15.72
2019-05-30T07:03:10.067Z,15.79
2019-05-30T07:05:37.977Z,15.84
2019-05-30T07:08:05.602Z,15.61
2019-05-30T07:10:33.388Z,15.71
2019-05-30T07:13:03.990Z,15.72
2019-05-30T07:15:31.466Z,15.53
2019-05-30T07:17:58.837Z,15.39
2019-05-30T07:20:25.864Z,15.50
2019-05-30T07:22:53.329Z,15.58
2019-05-30T07:25:21.348Z,15.50
2019-05-30T07:27:48.402Z,15.64
2019-05-30T07:30:15.914Z,15.74
2019-05-30T07:32:45.455Z,15.74
2019-05-30T07:35:12.677Z,15.71
2019-05-30T07:37:40.334Z,15.82
2019-05-30T07:40:09.263Z,15.84
2019-05-30T07:42:36.810Z,15.88
2019-05-30T07:45:05.625Z,16.09
2019-05-30T07:47:34.314Z,16.16
2019-05-30T07:50:01.635Z,16.17
2019-05-30T07:52:30.529Z,16.03
2019-05-30T07:54:58.271Z,16.08
2019-05-30T07:57:30.241Z,16.05
2019-05-30T08:00:02.794Z,16.03
2019-05-30T08:02:31.606Z,15.73
2019-05-30T08:05:03.028Z,15.57
2019-05-30T08:07:30.705Z,15.82
2019-05-30T08:09:57.830Z,15.62
2019-05-30T08:12:25.601Z,15.82
2019-05-30T08:14:53.391Z,15.79
2019-05-30T08:17:20.463Z,15.90
2019-05-30T08:19:47.849Z,15.99
2019-05-30T08:22:15.877Z,15.99
2019-05-30T08:24:43.975Z,16.20
2019-05-30T08:27:11.330Z,16.37
2019-05-30T08:29:39.154Z,16.31
2019-05-30T08:32:06.595Z,16.46
2019-05-30T08:34:34.706Z,16.52
2019-05-30T08:37:02.435Z,16.56
2019-05-30T08:39:30.917Z,16.57
2019-05-30T08:42:13.092Z,16.74
2019-05-30T08:44:40.798Z,16.65
2019-05-30T08:47:08.299Z,16.66
2019-05-30T08:49:36.143Z,16.67
2019-05-30T08:52:03.405Z,16.62
2019-05-30T08:54:30.463Z,16.86
2019-05-30T08:56:58.125Z,17.05
2019-05-30T08:59:25.198Z,17.15
2019-05-30T09:01:53.259Z,17.15
2019-05-30T09:04:21.359Z,17.25
2019-05-30T09:06:48.404Z,17.11
2019-05-30T09:09:15.453Z,17.15
2019-05-30T09:11:42.896Z,17.00
2019-05-30T09:14:10.633Z,17.15
2019-05-30T09:16:38.930Z,17.22
2019-05-30T09:19:05.994Z,17.42
2019-05-30T09:21:33.356Z,17.55
2019-05-30T09:24:02.892Z,17.63
2019-05-30T09:26:30.249Z,17.43
2019-05-30T09:28:57.594Z,17.37
2019-05-30T09:31:24.924Z,17.29
2019-05-30T09:33:52.199Z,17.29
2019-05-30T09:36:19.274Z,17.27
2019-05-30T09:38:49.648Z,17.41
2019-05-30T09:41:17.511Z,17.37
2019-05-30T09:43:46.346Z,17.35
2019-05-30T09:46:14.047Z,17.49
2019-05-30T09:48:43.193Z,17.49
2019-05-30T09:51:11.143Z,17.48
2019-05-30T09:53:39.301Z,17.61
2019-05-30T09:56:06.661Z,17.57
2019-05-30T09:58:34.434Z,17.43
2019-05-30T10:01:03.708Z,17.50
2019-05-30T10:03:30.859Z,17.60
2019-05-30T10:05:58.614Z,17.60
2019-05-30T10:08:26.033Z,17.37
2019-05-30T10:10:53.641Z,17.42
2019-05-30T10:13:22.459Z,17.33
2019-05-30T10:15:50.525Z,17.64
2019-05-30T10:18:22.162Z,17.58
2019-05-30T10:21:25.909Z,17.64
2019-05-30T10:23:53.813Z,17.66
2019-05-30T10:26:21.353Z,17.65
2019-05-30T10:28:49.536Z,17.50
2019-05-30T10:31:17.151Z,17.66
2019-05-30T10:33:45.940Z,17.54
2019-05-30T10:36:20.687Z,17.66
2019-05-30T10:38:50.278Z,17.80
2019-05-30T10:41:21.066Z,17.82
2019-05-30T10:43:51.037Z,18.00
2019-05-30T10:46:19.011Z,17.98
2019-05-30T10:48:47.328Z,17.91
2019-05-30T10:51:15.317Z,18.14
2019-05-30T10:53:42.825Z,18.10
2019-05-30T10:58:50.774Z,17.87
2019-05-30T11:01:18.202Z,17.98
2019-05-30T11:03:46.029Z,18.03
2019-05-30T11:06:26.789Z,18.10
2019-05-30T11:08:57.782Z,18.19
2019-05-30T11:11:25.201Z,18.02
2019-05-30T11:13:53.285Z,18.03
2019-05-30T11:16:21.222Z,17.97
2019-05-30T11:18:49.352Z,18.09
2019-05-30T11:21:19.026Z,18.18
2019-05-30T11:23:46.464Z,18.24
2019-05-30T11:26:14.116Z,17.95
2019-05-30T11:28:41.182Z,18.07
2019-05-30T11:31:08.963Z,18.05
2019-05-30T11:33:36.287Z,17.99
2019-05-30T11:36:04.153Z,18.08
2019-05-30T11:38:32.346Z,17.93
2019-05-30T11:41:00.484Z,17.99
2019-05-30T11:43:28.254Z,17.82
2019-05-30T11:45:56.094Z,17.80
2019-05-30T11:48:23.604Z,17.98
2019-05-30T11:50:51.937Z,17.94
2019-05-30T11:53:19.503Z,18.12
2019-05-30T11:55:47.082Z,17.83
2019-05-30T11:58:19.223Z,18.01
2019-05-30T12:00:45.443Z,18.04
2019-05-30T12:03:12.844Z,18.00
2019-05-30T12:05:39.899Z,18.03
2019-05-30T12:08:07.335Z,18.14
2019-05-30T12:10:34.727Z,18.20
2019-05-30T12:13:02.045Z,18.24
2019-05-30T12:15:29.431Z,18.09
2019-05-30T12:17:57.487Z,18.05
2019-05-30T12:20:24.815Z,17.91
2019-05-30T12:22:53.786Z,17.91
2019-05-30T12:25:21.095Z,17.98
2019-05-30T12:27:48.929Z,18.13
2019-05-30T12:30:16.338Z,18.18
2019-05-30T12:32:43.834Z,18.11
2019-05-30T12:35:13.060Z,18.17
2019-05-30T12:37:54.072Z,18.19
2019-05-30T12:40:10.823Z,18.11
2019-05-30T12:42:38.118Z,17.88
2019-05-30T12:45:07.363Z,17.92
2019-05-30T12:47:34.515Z,18.02
2019-05-30T12:50:03.466Z,18.16
2019-05-30T12:52:31.350Z,18.05
2019-05-30T12:54:58.845Z,17.84
2019-05-30T12:57:27.382Z,17.99
2019-05-30T12:59:55.148Z,17.99
2019-05-30T13:02:22.743Z,17.82
2019-05-30T13:04:50.468Z,17.79
2019-05-30T13:07:18.195Z,17.91
2019-05-30T13:09:45.971Z,17.98
2019-05-30T13:12:14.018Z,17.92
2019-05-30T13:14:41.839Z,18.19
2019-05-30T13:17:09.940Z,18.14
2019-05-30T13:19:37.447Z,18.29
2019-05-30T13:22:05.048Z,18.14
2019-05-30T13:24:33.079Z,18.13
2019-05-30T13:27:05.966Z,18.01
2019-05-30T13:29:33.195Z,18.12
2019-05-30T13:32:04.691Z,18.20
2019-05-30T13:34:32.558Z,18.21
2019-05-30T13:37:00.704Z,18.27
2019-05-30T13:39:29.736Z,18.06
2019-05-30T13:41:57.524Z,18.24
2019-05-30T13:44:25.238Z,18.18
2019-05-30T13:46:53.427Z,18.22
2019-05-30T13:49:20.475Z,18.17
2019-05-30T13:51:47.516Z,18.33
2019-05-30T13:54:14.534Z,18.17
2019-05-30T13:56:41.889Z,18.01
2019-05-30T13:59:10.114Z,18.14
2019-05-30T14:01:37.965Z,18.15
2019-05-30T14:04:06.281Z,18.30
2019-05-30T14:06:33.421Z,18.17
2019-05-30T14:09:02.849Z,18.24
2019-05-30T14:11:29.916Z,18.22
2019-05-30T14:13:57.679Z,18.29
2019-05-30T14:16:25.589Z,18.28
2019-05-30T14:18:53.024Z,18.17
2019-05-30T14:21:20.788Z,18.35
2019-05-30T14:23:48.775Z,18.49
2019-05-30T14:26:16.540Z,18.52
2019-05-30T14:28:44.171Z,18.34
2019-05-30T14:31:13.564Z,18.21
2019-05-30T14:33:41.153Z,18.26
2019-05-30T14:36:12.113Z,18.19
2019-05-30T14:38:38.925Z,18.24
2019-05-30T14:41:09.079Z,18.33
2019-05-30T14:43:38.976Z,18.20
2019-05-30T14:46:06.387Z,18.32
2019-05-30T14:48:34.198Z,18.46
2019-05-30T14:51:01.292Z,18.32
2019-05-30T14:53:28.681Z,18.38
2019-05-30T14:55:56.238Z,18.43
2019-05-30T14:58:26.509Z,18.38
2019-05-30T15:00:54.691Z,18.61
2019-05-30T15:03:22.430Z,18.47
2019-05-30T15:05:50.769Z,18.44
2019-05-30T15:08:17.920Z,18.43
2019-05-30T15:10:45.284Z,18.47
2019-05-30T15:13:13.743Z,18.40
2019-05-30T15:15:41.592Z,18.47
2019-05-30T15:18:09.456Z,18.57
2019-05-30T15:20:39.750Z,18.48
2019-05-30T15:23:07.599Z,18.47
2019-05-30T15:25:35.237Z,18.43
2019-05-30T15:28:02.380Z,18.55
2019-05-30T15:30:30.364Z,18.49
2019-05-30T15:32:57.982Z,18.47
2019-05-30T15:35:25.361Z,18.45
2019-05-30T15:37:53.171Z,18.44
2019-05-30T15:40:22.803Z,18.45
2019-05-30T15:42:53.063Z,18.50
2019-05-30T15:45:18.907Z,18.25
2019-05-30T15:47:46.642Z,18.22
2019-05-30T15:50:15.373Z,18.26
2019-05-30T15:52:44.356Z,18.29
2019-05-30T15:55:11.649Z,18.40
2019-05-30T15:57:39.391Z,18.30
2019-05-30T16:00:07.892Z,18.34
2019-05-30T16:02:35.674Z,18.47
2019-05-30T16:05:03.735Z,18.65
2019-05-30T16:07:30.759Z,18.61
2019-05-30T16:09:58.634Z,18.55
2019-05-30T16:12:26.093Z,18.45
2019-05-30T16:14:53.480Z,18.57
2019-05-30T16:17:21.774Z,18.57
2019-05-30T16:19:49.675Z,18.61
2019-05-30T16:22:18.277Z,18.47
2019-05-30T16:24:45.942Z,18.42
2019-05-30T16:27:13.760Z,18.50
2019-05-30T16:29:41.728Z,18.63
2019-05-30T16:32:09.768Z,18.72
2019-05-30T16:34:37.280Z,18.86
2019-05-30T16:37:04.346Z,19.10
2019-05-30T16:39:31.929Z,18.88
2019-05-30T16:41:59.331Z,18.87
2019-05-30T16:44:26.867Z,18.91
2019-05-30T16:46:53.918Z,18.81
2019-05-30T16:49:22.937Z,18.86
2019-05-30T16:51:50.457Z,18.88
2019-05-30T16:54:19.185Z,18.88
2019-05-30T16:56:46.868Z,18.74
2019-05-30T16:59:14.716Z,18.92
2019-05-30T17:01:42.100Z,19.11
2019-05-30T17:04:10.883Z,19.13
2019-05-30T17:06:38.309Z,19.10
2019-05-30T17:09:06.291Z,19.20
2019-05-30T17:11:33.709Z,19.35
2019-05-30T17:14:03.273Z,19.11
2019-05-30T17:16:30.657Z,19.13
2019-05-30T17:18:58.466Z,19.08
2019-05-30T17:21:26.816Z,19.12
2019-05-30T17:23:57.278Z,19.08
2019-05-30T17:26:25.366Z,19.04
2019-05-30T17:28:53.338Z,19.07
2019-05-30T17:31:21.845Z,19.10
2019-05-30T17:33:49.736Z,19.14
2019-05-30T17:36:18.022Z,19.14
2019-05-30T17:38:45.505Z,19.30
2019-05-30T17:41:12.566Z,19.30
2019-05-30T17:43:40.465Z,19.43
2019-05-30T17:46:08.322Z,19.31
2019-05-30T17:48:36.565Z,19.55
2019-05-30T17:51:03.705Z,19.61
2019-05-30T17:53:30.771Z,19.62
2019-05-30T17:56:08.229Z,19.49
2019-05-30T17:58:35.809Z,19.57
2019-05-30T18:01:03.575Z,19.57
2019-05-30T18:03:31.960Z,19.77
2019-05-30T18:05:59.048Z,19.64
2019-05-30T18:08:26.909Z,19.62
2019-05-30T18:10:54.760Z,19.50
2019-05-30T18:13:23.043Z,19.44
2019-05-30T18:15:50.265Z,19.20
2019-05-30T18:18:17.603Z,19.20
2019-05-30T18:20:48.379Z,19.20
2019-05-30T18:23:14.797Z,19.11
2019-05-30T18:25:41.865Z,18.99
2019-05-30T18:28:09.658Z,18.92
2019-05-30T18:30:41.780Z,18.91
2019-05-30T18:33:09.558Z,18.82
2019-05-30T18:35:37.596Z,18.79
2019-05-30T18:38:04.675Z,18.83
2019-05-30T18:40:33.259Z,18.71
2019-05-30T18:43:01.136Z,18.84
2019-05-30T18:45:36.360Z,18.86
2019-05-30T18:48:04.026Z,18.81
2019-05-30T18:50:32.016Z,18.76
2019-05-30T18:52:59.655Z,18.83
2019-05-30T18:55:28.472Z,18.74
2019-05-30T18:57:56.184Z,18.59
2019-05-30T19:00:23.418Z,18.54
2019-05-30T19:02:50.836Z,18.47
2019-05-30T19:05:18.646Z,18.49
2019-05-30T19:07:46.483Z,18.43
2019-05-30T19:10:13.615Z,18.30
2019-05-30T19:12:41.437Z,18.22
2019-05-30T19:15:08.944Z,18.14
2019-05-30T19:17:36.372Z,17.97
2019-05-30T19:20:04.601Z,17.96
2019-05-30T19:22:32.469Z,17.78
2019-05-30T19:24:59.989Z,17.85
2019-05-30T19:27:28.729Z,17.81
2019-05-30T19:29:57.468Z,17.77
2019-05-30T19:32:24.909Z,17.68
2019-05-30T19:34:52.647Z,17.59
2019-05-30T19:37:20.051Z,17.49
2019-05-30T19:39:47.157Z,17.42
2019-05-30T19:42:14.964Z,17.43
2019-05-30T19:44:42.350Z,17.43
2019-05-30T19:47:09.806Z,17.45
2019-05-30T19:49:38.592Z,17.41
2019-05-30T19:52:06.074Z,17.26
2019-05-30T19:54:33.137Z,17.27
2019-05-30T19:57:00.502Z,17.23
2019-05-30T19:59:27.975Z,17.19
2019-05-30T20:01:55.085Z,17.09
2019-05-30T20:04:22.607Z,17.09
2019-05-30T20:06:50.270Z,17.02
2019-05-30T20:09:17.318Z,16.96
2019-05-30T20:12:01.834Z,16.95
2019-05-30T20:14:14.332Z,16.95
2019-05-30T20:16:42.074Z,16.91
2019-05-30T20:19:09.881Z,16.90
2019-05-30T20:21:37.865Z,16.82
2019-05-30T20:24:05.626Z,16.78
2019-05-30T20:26:34.425Z,16.77
2019-05-30T20:29:04.644Z,16.70
2019-05-30T20:31:33.324Z,16.69
2019-05-30T20:34:01.453Z,16.57
2019-05-30T20:36:29.171Z,16.53
2019-05-30T20:38:57.110Z,16.53
2019-05-30T20:41:24.171Z,16.55
2019-05-30T20:43:51.537Z,16.51
2019-05-30T20:46:23.230Z,16.46
2019-05-30T20:48:48.729Z,16.42
2019-05-30T20:51:21.100Z,16.44
2019-05-30T20:53:45.483Z,16.37
2019-05-30T20:56:13.069Z,16.39
2019-05-30T20:58:41.825Z,16.41
2019-05-30T21:01:09.686Z,16.29
2019-05-30T21:03:37.870Z,16.22
2019-05-30T21:06:05.453Z,16.22
2019-05-30T21:08:34.881Z,16.24
2019-05-30T21:11:02.521Z,16.14
2019-05-30T21:13:34.235Z,16.21
2019-05-30T21:16:03.998Z,16.25
2019-05-30T21:18:35.642Z,16.18
2019-05-30T21:21:03.174Z,16.20
2019-05-30T21:23:30.712Z,16.16
2019-05-30T21:25:58.478Z,16.28
2019-05-30T21:28:26.017Z,16.32
2019-05-30T21:30:53.480Z,16.35
2019-05-30T21:33:21.301Z,16.27
2019-05-30T21:35:48.501Z,16.27
2019-05-30T21:38:15.819Z,16.26
2019-05-30T21:40:44.473Z,16.25
2019-05-30T21:43:12.335Z,16.21
2019-05-30T21:45:40.353Z,16.16
2019-05-30T21:48:07.471Z,16.19
2019-05-30T21:50:34.511Z,16.22
2019-05-30T21:53:01.533Z,16.18
2019-05-30T21:55:28.612Z,16.08
2019-05-30T21:57:55.798Z,16.14
2019-05-30T22:00:53.331Z,16.09
2019-05-30T22:03:21.073Z,16.13
2019-05-30T22:05:48.620Z,16.05
2019-05-30T22:08:17.589Z,16.05
2019-05-30T22:10:45.418Z,16.04
2019-05-30T22:13:12.823Z,16.05
2019-05-30T22:15:41.620Z,16.14
2019-05-30T22:18:09.375Z,16.10
2019-05-30T22:20:37.118Z,16.16
2019-05-30T22:23:04.465Z,16.22
2019-05-30T22:25:31.891Z,16.26
2019-05-30T22:27:58.961Z,16.32
2019-05-30T22:30:26.308Z,16.27
2019-05-30T22:32:53.731Z,16.34
2019-05-30T22:35:21.253Z,16.34
2019-05-30T22:37:48.928Z,16.30
2019-05-30T22:40:16.193Z,16.26
2019-05-30T22:42:46.030Z,16.40
2019-05-30T22:45:14.835Z,16.33
2019-05-30T22:47:42.566Z,16.37
2019-05-30T22:50:09.978Z,16.39
2019-05-30T22:52:37.032Z,16.44
2019-05-30T22:55:04.237Z,16.45
2019-05-30T22:57:31.954Z,16.39
2019-05-30T22:59:59.995Z,16.45
2019-05-30T23:02:28.174Z,16.49
2019-05-30T23:04:56.416Z,16.54
2019-05-30T23:07:23.873Z,16.50
2019-05-30T23:09:51.877Z,16.57
2019-05-30T23:12:19.683Z,16.61
2019-05-30T23:14:48.025Z,16.58
2019-05-30T23:17:15.485Z,16.61
2019-05-30T23:19:42.517Z,16.60
2019-05-30T23:22:09.594Z,16.63
2019-05-30T23:24:36.778Z,16.69
2019-05-30T23:27:03.884Z,16.62
2019-05-30T23:29:30.937Z,16.72
2019-05-30T23:31:58.412Z,16.72
2019-05-30T23:34:25.505Z,16.74
2019-05-30T23:36:53.034Z,16.71
2019-05-30T23:39:21.415Z,16.77
2019-05-30T23:41:48.919Z,16.84
2019-05-30T23:44:16.207Z,16.86
2019-05-30T23:46:43.274Z,16.80
2019-05-30T23:49:10.631Z,16.88
2019-05-30T23:51:38.405Z,16.82
2019-05-30T23:54:06.082Z,16.87
2019-05-30T23:56:33.703Z,16.95
2019-05-30T23:59:01.326Z,16.90
